createdAt,value
2023-01-13T00:02:10.966Z,3.22
2023-01-13T00:07:12.472Z,4.10
2023-01-13T00:12:13.912Z,2.95
2023-01-13T00:17:15.343Z,3.78
2023-01-13T00:22:16.830Z,2.97
2023-01-13T00:27:18.319Z,3.25
2023-01-13T00:32:19.740Z,5.63
2023-01-13T00:37:21.366Z,5.10
2023-01-13T00:42:41.157Z,4.85
2023-01-13T00:47:42.590Z,4.95
2023-01-13T00:52:44.066Z,4.40
2023-01-13T00:57:45.471Z,4.43
2023-01-13T01:02:46.922Z,5.15
2023-01-13T01:07:48.564Z,4.88
2023-01-13T01:12:50.837Z,4.72
2023-01-13T01:17:52.329Z,4.93
2023-01-13T01:22:53.728Z,2.80
2023-01-13T01:27:55.308Z,4.10
2023-01-13T01:32:57.288Z,3.85
2023-01-13T01:37:58.727Z,3.53
2023-01-13T01:43:18.747Z,3.13
2023-01-13T01:48:20.379Z,2.97
2023-01-13T01:53:24.620Z,3.22
2023-01-13T01:58:31.167Z,3.85
2023-01-13T02:03:35.063Z,3.20
2023-01-13T02:08:39.078Z,2.15
2023-01-13T02:13:40.544Z,3.58
2023-01-13T02:19:22.456Z,5.10
2023-01-13T02:24:55.963Z,5.25
2023-01-13T02:30:27.448Z,4.82
2023-01-13T02:35:47.410Z,4.25
2023-01-13T02:41:23.207Z,4.25
2023-01-13T02:46:48.560Z,5.07
2023-01-13T02:51:52.643Z,4.95
2023-01-13T02:56:56.663Z,5.28
2023-01-13T03:01:59.548Z,5.18
2023-01-13T03:07:12.777Z,5.20
2023-01-13T03:12:34.470Z,4.82
2023-01-13T03:17:49.663Z,6.13
2023-01-13T03:23:03.168Z,5.35
2023-01-13T03:28:17.884Z,4.20
2023-01-13T03:33:29.484Z,4.22
2023-01-13T03:38:39.241Z,3.47
2023-01-13T03:44:24.888Z,4.63
2023-01-13T03:49:42.488Z,4.43
2023-01-13T03:54:51.945Z,4.85
2023-01-13T03:59:58.825Z,6.75
2023-01-13T04:05:03.530Z,4.25
2023-01-13T04:10:09.080Z,7.32
2023-01-13T04:15:12.442Z,5.32
2023-01-13T04:20:14.637Z,5.35
2023-01-13T04:25:16.311Z,5.20
2023-01-13T04:30:17.964Z,4.57
2023-01-13T04:35:19.548Z,5.70
2023-01-13T04:40:21.383Z,6.30
2023-01-13T04:45:22.873Z,4.72
2023-01-13T04:50:24.729Z,4.95
2023-01-13T04:55:26.317Z,5.43
2023-01-13T05:00:27.757Z,5.03
2023-01-13T05:05:30.392Z,6.10
2023-01-13T05:10:31.980Z,5.15
2023-01-13T05:15:52.456Z,6.25
2023-01-13T05:20:53.940Z,5.60
2023-01-13T05:25:55.535Z,5.47
2023-01-13T05:30:57.080Z,4.88
2023-01-13T05:36:02.294Z,5.72
2023-01-13T05:41:27.035Z,8.13
2023-01-13T05:46:28.542Z,8.35
2023-01-13T05:51:30.035Z,8.00
2023-01-13T05:56:31.551Z,4.55
2023-01-13T06:01:33.236Z,4.85
2023-01-13T06:06:34.688Z,4.60
2023-01-13T06:11:36.094Z,5.45
2023-01-13T06:16:37.725Z,4.95
2023-01-13T06:21:39.860Z,6.18
2023-01-13T06:26:41.547Z,4.68
2023-01-13T06:31:43.349Z,4.82
2023-01-13T06:36:50.426Z,4.00
2023-01-13T06:42:12.783Z,4.40
2023-01-13T06:47:14.472Z,4.20
2023-01-13T06:52:16.063Z,5.57
2023-01-13T06:57:17.592Z,4.00
2023-01-13T07:02:19.466Z,4.70
2023-01-13T07:07:20.987Z,4.13
2023-01-13T07:12:22.395Z,5.20
2023-01-13T07:17:26.788Z,4.97
2023-01-13T07:22:28.252Z,5.97
2023-01-13T07:27:29.739Z,4.72
2023-01-13T07:32:34.549Z,4.47
2023-01-13T07:37:37.602Z,4.93
2023-01-13T07:42:58.130Z,4.53
2023-01-13T07:47:59.670Z,6.03
2023-01-13T07:53:01.322Z,4.15
2023-01-13T07:58:02.788Z,4.55
2023-01-13T08:03:04.835Z,4.93
2023-01-13T08:08:06.330Z,4.38
2023-01-13T08:13:19.574Z,6.10
2023-01-13T08:18:22.232Z,5.47
2023-01-13T08:23:23.742Z,4.22
2023-01-13T08:28:25.413Z,4.43
2023-01-13T08:33:27.671Z,4.47
2023-01-13T08:38:29.129Z,5.03
2023-01-13T08:43:30.552Z,5.43
2023-01-13T08:48:32.063Z,4.95
2023-01-13T08:53:33.561Z,3.22
2023-01-13T08:58:35.029Z,4.70
2023-01-13T09:03:36.505Z,4.05
2023-01-13T09:08:38.000Z,5.40
2023-01-13T09:13:39.620Z,4.35
2023-01-13T09:18:41.027Z,4.45
2023-01-13T09:23:42.492Z,3.95
2023-01-13T09:28:43.906Z,3.65
2023-01-13T09:34:03.828Z,4.55
2023-01-13T09:39:05.874Z,3.90
2023-01-13T09:44:13.595Z,3.65
2023-01-13T09:49:28.016Z,4.88
2023-01-13T09:59:36.306Z,3.17
2023-01-13T10:04:37.886Z,4.88
2023-01-13T10:09:54.035Z,3.63
2023-01-13T10:14:56.097Z,3.50
2023-01-13T10:20:16.038Z,3.17
2023-01-13T10:25:30.252Z,2.88
2023-01-13T10:30:41.954Z,2.80
2023-01-13T10:35:59.361Z,3.65
2023-01-13T10:41:19.356Z,2.90
2023-01-13T10:46:20.964Z,2.50
2023-01-13T10:51:25.455Z,2.47
2023-01-13T10:56:30.704Z,2.78
2023-01-13T11:01:32.291Z,2.38
2023-01-13T11:06:35.315Z,2.42
2023-01-13T11:11:43.437Z,2.58
2023-01-13T11:16:53.460Z,2.63
2023-01-13T11:22:11.174Z,3.05
2023-01-13T11:27:21.004Z,3.00
2023-01-13T11:32:24.510Z,3.55
2023-01-13T11:37:33.378Z,2.92
2023-01-13T11:42:55.876Z,2.08
2023-01-13T11:48:00.189Z,1.90
2023-01-13T11:53:09.599Z,2.25
2023-01-13T11:58:50.330Z,1.73
2023-01-13T12:04:18.180Z,2.20
2023-01-13T12:09:42.489Z,2.35
2023-01-13T12:14:49.776Z,2.78
2023-01-13T12:19:51.448Z,2.80
2023-01-13T12:25:05.722Z,2.92
2023-01-13T12:30:22.710Z,2.13
2023-01-13T12:35:53.225Z,2.97
2023-01-13T12:41:24.507Z,2.08
2023-01-13T12:46:25.974Z,2.03
2023-01-13T12:51:37.859Z,2.50
2023-01-13T12:56:44.791Z,2.55
2023-01-13T13:01:48.714Z,2.67
2023-01-13T13:07:14.093Z,3.10
2023-01-13T13:12:49.443Z,2.33
2023-01-13T13:18:08.595Z,2.30
2023-01-13T13:23:39.073Z,2.65
2023-01-13T13:28:53.580Z,2.38
2023-01-13T13:34:25.740Z,2.65
2023-01-13T13:39:49.150Z,3.95
2023-01-13T13:45:09.949Z,2.70
2023-01-13T13:50:16.806Z,4.68
2023-01-13T13:55:21.860Z,3.65
2023-01-13T14:00:33.249Z,3.15
2023-01-13T14:05:36.165Z,3.00
2023-01-13T14:10:40.229Z,2.90
2023-01-13T14:15:42.010Z,3.28
2023-01-13T14:20:44.156Z,2.95
2023-01-13T14:25:51.083Z,3.28
2023-01-13T14:30:53.933Z,2.83
2023-01-13T14:36:04.493Z,3.08
2023-01-13T14:41:24.176Z,3.22
2023-01-13T14:46:39.732Z,3.80
2023-01-13T14:51:41.333Z,3.00
2023-01-13T14:56:51.032Z,2.80
2023-01-13T15:01:54.227Z,4.03
2023-01-13T15:06:57.700Z,3.70
2023-01-13T15:12:00.228Z,3.30
2023-01-13T15:17:02.824Z,2.80
2023-01-13T15:22:04.360Z,3.00
2023-01-13T15:27:19.687Z,4.45
2023-01-13T15:32:21.691Z,4.18
2023-01-13T15:37:25.480Z,3.33
2023-01-13T15:42:45.549Z,3.33
2023-01-13T15:47:48.187Z,3.35
2023-01-13T15:52:49.631Z,4.05
2023-01-13T15:57:51.157Z,3.03
2023-01-13T16:02:52.741Z,3.40
2023-01-13T16:07:54.289Z,3.38
2023-01-13T16:12:55.914Z,4.38
2023-01-13T16:18:00.285Z,4.22
2023-01-13T16:23:01.748Z,3.45
2023-01-13T16:28:03.501Z,3.67
2023-01-13T16:33:05.095Z,3.05
2023-01-13T16:38:06.577Z,4.70
2023-01-13T16:43:12.276Z,4.22
2023-01-13T16:48:20.284Z,4.55
2023-01-13T16:53:21.763Z,4.20
2023-01-13T16:58:23.397Z,5.15
2023-01-13T17:03:24.940Z,3.75
2023-01-13T17:08:26.478Z,4.03
2023-01-13T17:13:28.220Z,5.00
2023-01-13T17:18:29.953Z,6.07
2023-01-13T17:23:31.668Z,4.97
2023-01-13T17:28:33.222Z,3.25
2023-01-13T17:33:37.094Z,4.18
2023-01-13T17:38:38.611Z,4.95
2023-01-13T17:43:40.152Z,5.70
2023-01-13T17:48:41.585Z,5.00
2023-01-13T17:53:45.433Z,5.68
2023-01-13T17:58:46.900Z,5.15
2023-01-13T18:03:49.437Z,5.25
2023-01-13T18:08:51.154Z,5.15
2023-01-13T18:13:57.416Z,4.13
2023-01-13T18:19:18.435Z,5.10
2023-01-13T18:24:38.598Z,5.53
2023-01-13T18:29:40.085Z,5.28
2023-01-13T18:34:41.608Z,5.63
2023-01-13T18:39:43.057Z,3.45
2023-01-13T18:44:44.583Z,5.40
2023-01-13T18:49:46.221Z,5.00
2023-01-13T18:54:47.763Z,6.15
2023-01-13T18:59:49.402Z,5.15
2023-01-13T19:04:50.987Z,4.75
2023-01-13T19:09:55.600Z,3.47
2023-01-13T19:14:58.407Z,4.32
2023-01-13T19:20:00.610Z,5.72
2023-01-13T19:25:03.689Z,5.53
2023-01-13T19:30:06.010Z,6.15
2023-01-13T19:35:07.870Z,4.70
2023-01-13T19:40:10.359Z,4.40
2023-01-13T19:45:26.566Z,5.32
2023-01-13T19:50:28.126Z,4.70
2023-01-13T19:55:31.667Z,4.32
2023-01-13T20:00:33.329Z,5.00
2023-01-13T20:05:34.842Z,5.60
2023-01-13T20:10:37.601Z,5.07
2023-01-13T20:15:39.991Z,6.00
2023-01-13T20:20:41.538Z,4.45
2023-01-13T20:25:43.136Z,6.43
2023-01-13T20:30:44.688Z,4.03
2023-01-13T20:35:46.193Z,4.53
2023-01-13T20:40:47.615Z,3.65
2023-01-13T20:45:49.806Z,4.63
2023-01-13T20:50:57.753Z,5.22
2023-01-13T20:55:59.285Z,3.75
2023-01-13T21:01:01.352Z,5.65
2023-01-13T21:06:02.978Z,3.60
2023-01-13T21:11:06.072Z,3.80
2023-01-13T21:16:09.800Z,4.03
2023-01-13T21:21:11.578Z,4.27
2023-01-13T21:26:15.417Z,5.05
2023-01-13T21:31:18.101Z,4.90
2023-01-13T21:36:19.636Z,4.65
2023-01-13T21:41:41.181Z,4.28
2023-01-13T21:47:01.014Z,4.93
2023-01-13T21:52:02.447Z,3.55
2023-01-13T21:57:03.926Z,3.00
2023-01-13T22:02:25.581Z,1.52
2023-01-13T22:07:28.105Z,2.13
2023-01-13T22:12:30.048Z,3.10
2023-01-13T22:17:31.699Z,3.80
2023-01-13T22:22:36.742Z,2.97
2023-01-13T22:27:43.372Z,2.92
2023-01-13T22:32:45.743Z,3.35
2023-01-13T22:37:47.142Z,3.55
2023-01-13T22:42:48.610Z,3.03
2023-01-13T22:47:50.102Z,4.18
2023-01-13T22:52:51.565Z,4.78
2023-01-13T22:57:53.494Z,4.35
2023-01-13T23:02:54.905Z,4.72
2023-01-13T23:07:56.374Z,4.32
2023-01-13T23:12:57.834Z,4.65
2023-01-13T23:17:59.358Z,4.53
2023-01-13T23:23:00.920Z,4.20
2023-01-13T23:28:02.421Z,4.32
2023-01-13T23:33:03.938Z,4.03
2023-01-13T23:38:05.566Z,3.50
2023-01-13T23:43:07.097Z,3.42
2023-01-13T23:48:08.729Z,4.93
2023-01-13T23:53:10.461Z,4.93
2023-01-13T23:58:12.448Z,3.78
